aviador You're here:

CYED Decoded Metar

EDMONTON in AB, CANADA
Report Time2017-09-20 07:00:00
UTC Time2017-09-20 07:40:49
Flight Rules ifr IFR
Wind220° at 06 kt
W.Rank220° ranks 11
Current wind is above 220° avg. (5.5)
Visibility6437 m
Phenomena:N/A
Clouds:Overcast 006 Hf
Ceiling600 ft
Temp04°C (ISA -7)
Dew Point04°C (100% RH)
AAT0.5°C
QNH994 hPa
Density Alt2,241 ft
Elevation2,257 ft
Report Wrong Elevation
Raw Report
CYED 200700Z AUTO 22006KT 4SM OVC006 04/04 A2936 RMK SLP962=

Extra information for CYED:More info

Metar Taf Metar & Taf Last 4 Metars F.Rules Stats Wind Profile Meteogram Temp Stats Airport Information Weather charts Add Link Nearby VenuesMetar ALERT Operation Metar Decoded Social comments